sensor_id;sensor_type;location;lat;lon;timestamp;temperature;humidity
9768;DHT22;4923;52.520;13.494;2024-02-21T00:00:55;8.30;99.90
9768;DHT22;4923;52.520;13.494;2024-02-21T00:03:42;8.40;99.90
9768;DHT22;4923;52.520;13.494;2024-02-21T00:06:29;8.40;99.90
9768;DHT22;4923;52.520;13.494;2024-02-21T00:09:16;8.30;99.90
9768;DHT22;4923;52.520;13.494;2024-02-21T00:12:05;8.40;99.90
9768;DHT22;4923;52.520;13.494;2024-02-21T00:14:53;8.40;99.90
9768;DHT22;4923;52.520;13.494;2024-02-21T00:17:40;8.40;99.90
9768;DHT22;4923;52.520;13.494;2024-02-21T00:20:27;8.40;99.90
9768;DHT22;4923;52.520;13.494;2024-02-21T00:23:14;8.40;99.90
9768;DHT22;4923;52.520;13.494;2024-02-21T00:26:01;8.40;99.90
9768;DHT22;4923;52.520;13.494;2024-02-21T00:28:48;8.40;99.90
9768;DHT22;4923;52.520;13.494;2024-02-21T00:31:36;8.40;99.90
9768;DHT22;4923;52.520;13.494;2024-02-21T00:34:23;8.40;99.90
9768;DHT22;4923;52.520;13.494;2024-02-21T00:37:10;8.40;99.90
9768;DHT22;4923;52.520;13.494;2024-02-21T00:39:57;8.40;99.90
9768;DHT22;4923;52.520;13.494;2024-02-21T00:42:43;8.40;99.90
9768;DHT22;4923;52.520;13.494;2024-02-21T00:45:31;8.40;99.90
9768;DHT22;4923;52.520;13.494;2024-02-21T00:48:20;8.30;99.90
9768;DHT22;4923;52.520;13.494;2024-02-21T00:51:07;8.30;99.90
9768;DHT22;4923;52.520;13.494;2024-02-21T00:53:53;8.30;99.90
9768;DHT22;4923;52.520;13.494;2024-02-21T00:56:41;8.40;99.90
9768;DHT22;4923;52.520;13.494;2024-02-21T00:59:28;8.40;99.90
9768;DHT22;4923;52.520;13.494;2024-02-21T01:02:15;8.30;99.90
9768;DHT22;4923;52.520;13.494;2024-02-21T01:05:03;8.40;99.90
9768;DHT22;4923;52.520;13.494;2024-02-21T01:07:50;8.40;99.90
9768;DHT22;4923;52.520;13.494;2024-02-21T01:10:37;8.40;99.90
9768;DHT22;4923;52.520;13.494;2024-02-21T01:13:24;8.40;99.90
9768;DHT22;4923;52.520;13.494;2024-02-21T01:16:11;8.40;99.90
9768;DHT22;4923;52.520;13.494;2024-02-21T01:18:58;8.40;99.90
9768;DHT22;4923;52.520;13.494;2024-02-21T01:21:46;8.40;99.90
9768;DHT22;4923;52.520;13.494;2024-02-21T01:24:33;8.40;99.90
9768;DHT22;4923;52.520;13.494;2024-02-21T01:27:20;8.30;99.90
9768;DHT22;4923;52.520;13.494;2024-02-21T01:30:08;8.30;99.90
9768;DHT22;4923;52.520;13.494;2024-02-21T01:32:56;8.40;99.90
9768;DHT22;4923;52.520;13.494;2024-02-21T01:35:43;8.50;99.90
9768;DHT22;4923;52.520;13.494;2024-02-21T01:38:31;8.50;99.90
9768;DHT22;4923;52.520;13.494;2024-02-21T01:41:18;8.50;99.90
9768;DHT22;4923;52.520;13.494;2024-02-21T01:44:05;8.60;99.90
9768;DHT22;4923;52.520;13.494;2024-02-21T01:46:52;8.60;99.90
9768;DHT22;4923;52.520;13.494;2024-02-21T01:49:40;8.60;99.90
9768;DHT22;4923;52.520;13.494;2024-02-21T01:52:27;8.70;99.90
9768;DHT22;4923;52.520;13.494;2024-02-21T01:55:16;8.60;99.90
9768;DHT22;4923;52.520;13.494;2024-02-21T01:58:03;8.60;99.90
9768;DHT22;4923;52.520;13.494;2024-02-21T02:00:51;8.60;99.90
9768;DHT22;4923;52.520;13.494;2024-02-21T02:03:38;8.60;99.90
9768;DHT22;4923;52.520;13.494;2024-02-21T02:06:25;8.60;99.90
9768;DHT22;4923;52.520;13.494;2024-02-21T02:09:12;8.60;99.90
9768;DHT22;4923;52.520;13.494;2024-02-21T02:12:00;8.60;99.90
9768;DHT22;4923;52.520;13.494;2024-02-21T02:14:57;8.60;99.90
9768;DHT22;4923;52.520;13.494;2024-02-21T02:17:44;8.60;99.90
9768;DHT22;4923;52.520;13.494;2024-02-21T02:20:31;8.60;99.90
9768;DHT22;4923;52.520;13.494;2024-02-21T02:23:23;8.60;99.90
9768;DHT22;4923;52.520;13.494;2024-02-21T02:26:10;8.60;99.90
9768;DHT22;4923;52.520;13.494;2024-02-21T02:28:57;8.60;99.90
9768;DHT22;4923;52.520;13.494;2024-02-21T02:31:43;8.50;99.90
9768;DHT22;4923;52.520;13.494;2024-02-21T02:34:30;8.50;99.90
9768;DHT22;4923;52.520;13.494;2024-02-21T02:37:17;8.50;99.90
9768;DHT22;4923;52.520;13.494;2024-02-21T02:40:07;8.50;99.90
9768;DHT22;4923;52.520;13.494;2024-02-21T02:42:54;8.40;99.90
9768;DHT22;4923;52.520;13.494;2024-02-21T02:45:41;8.40;99.90
9768;DHT22;4923;52.520;13.494;2024-02-21T02:48:28;8.40;99.90
9768;DHT22;4923;52.520;13.494;2024-02-21T02:51:15;8.40;99.90
9768;DHT22;4923;52.520;13.494;2024-02-21T02:54:02;8.30;99.90
9768;DHT22;4923;52.520;13.494;2024-02-21T02:56:51;8.30;99.90
9768;DHT22;4923;52.520;13.494;2024-02-21T02:59:38;8.30;99.90
9768;DHT22;4923;52.520;13.494;2024-02-21T03:02:26;8.20;99.90
9768;DHT22;4923;52.520;13.494;2024-02-21T03:05:15;8.20;99.90
9768;DHT22;4923;52.520;13.494;2024-02-21T03:08:03;8.20;99.90
9768;DHT22;4923;52.520;13.494;2024-02-21T03:10:52;8.20;99.90
9768;DHT22;4923;52.520;13.494;2024-02-21T03:13:40;8.20;99.90
9768;DHT22;4923;52.520;13.494;2024-02-21T03:16:27;8.20;99.90
9768;DHT22;4923;52.520;13.494;2024-02-21T03:19:14;8.20;99.90
9768;DHT22;4923;52.520;13.494;2024-02-21T03:22:01;8.20;99.90
9768;DHT22;4923;52.520;13.494;2024-02-21T03:24:48;8.20;99.90
9768;DHT22;4923;52.520;13.494;2024-02-21T03:27:35;8.20;99.90
9768;DHT22;4923;52.520;13.494;2024-02-21T03:30:24;8.20;99.90
9768;DHT22;4923;52.520;13.494;2024-02-21T03:33:11;8.10;99.90
9768;DHT22;4923;52.520;13.494;2024-02-21T03:35:57;8.10;99.90
9768;DHT22;4923;52.520;13.494;2024-02-21T03:38:44;8.10;99.90
9768;DHT22;4923;52.520;13.494;2024-02-21T03:41:31;8.10;99.90
9768;DHT22;4923;52.520;13.494;2024-02-21T03:44:18;8.10;99.90
9768;DHT22;4923;52.520;13.494;2024-02-21T03:47:06;8.10;99.90
9768;DHT22;4923;52.520;13.494;2024-02-21T03:49:56;8.10;99.90
9768;DHT22;4923;52.520;13.494;2024-02-21T03:52:43;8.00;99.90
9768;DHT22;4923;52.520;13.494;2024-02-21T03:55:30;8.00;99.90
9768;DHT22;4923;52.520;13.494;2024-02-21T03:58:17;8.00;99.90
9768;DHT22;4923;52.520;13.494;2024-02-21T04:01:04;8.00;99.90
9768;DHT22;4923;52.520;13.494;2024-02-21T04:03:52;8.00;99.90
9768;DHT22;4923;52.520;13.494;2024-02-21T04:06:46;8.00;99.90
9768;DHT22;4923;52.520;13.494;2024-02-21T04:09:33;8.00;99.90
9768;DHT22;4923;52.520;13.494;2024-02-21T04:12:20;8.00;99.90
9768;DHT22;4923;52.520;13.494;2024-02-21T04:15:08;8.00;99.90
9768;DHT22;4923;52.520;13.494;2024-02-21T04:17:55;8.00;99.90
9768;DHT22;4923;52.520;13.494;2024-02-21T04:20:43;8.10;99.90
9768;DHT22;4923;52.520;13.494;2024-02-21T04:23:30;8.10;99.90
9768;DHT22;4923;52.520;13.494;2024-02-21T04:26:17;8.10;99.90
9768;DHT22;4923;52.520;13.494;2024-02-21T04:29:04;8.10;99.90
9768;DHT22;4923;52.520;13.494;2024-02-21T04:31:51;8.00;99.90
9768;DHT22;4923;52.520;13.494;2024-02-21T04:34:37;8.00;99.90
9768;DHT22;4923;52.520;13.494;2024-02-21T04:37:26;8.00;99.90
9768;DHT22;4923;52.520;13.494;2024-02-21T04:40:13;8.00;99.90
9768;DHT22;4923;52.520;13.494;2024-02-21T04:43:00;8.00;99.90
9768;DHT22;4923;52.520;13.494;2024-02-21T04:45:47;8.00;99.90
9768;DHT22;4923;52.520;13.494;2024-02-21T04:48:34;7.90;99.90
9768;DHT22;4923;52.520;13.494;2024-02-21T04:51:21;7.90;99.90
9768;DHT22;4923;52.520;13.494;2024-02-21T04:54:10;7.90;99.90
9768;DHT22;4923;52.520;13.494;2024-02-21T04:56:57;8.00;99.90
9768;DHT22;4923;52.520;13.494;2024-02-21T04:59:44;8.00;99.90
9768;DHT22;4923;52.520;13.494;2024-02-21T05:02:31;7.90;99.90
9768;DHT22;4923;52.520;13.494;2024-02-21T05:05:18;8.00;99.90
9768;DHT22;4923;52.520;13.494;2024-02-21T05:08:05;8.00;99.90
9768;DHT22;4923;52.520;13.494;2024-02-21T05:10:53;7.90;99.90
9768;DHT22;4923;52.520;13.494;2024-02-21T05:13:41;8.00;99.90
9768;DHT22;4923;52.520;13.494;2024-02-21T05:16:27;8.00;99.90
9768;DHT22;4923;52.520;13.494;2024-02-21T05:19:14;8.10;99.90
9768;DHT22;4923;52.520;13.494;2024-02-21T05:22:01;8.00;99.90
9768;DHT22;4923;52.520;13.494;2024-02-21T05:24:48;8.10;99.90
9768;DHT22;4923;52.520;13.494;2024-02-21T05:27:36;8.00;99.90
9768;DHT22;4923;52.520;13.494;2024-02-21T05:30:24;8.10;99.90
9768;DHT22;4923;52.520;13.494;2024-02-21T05:33:11;8.10;99.90
9768;DHT22;4923;52.520;13.494;2024-02-21T05:35:58;8.00;99.90
9768;DHT22;4923;52.520;13.494;2024-02-21T05:38:45;8.10;99.90
9768;DHT22;4923;52.520;13.494;2024-02-21T05:41:32;8.10;99.90
9768;DHT22;4923;52.520;13.494;2024-02-21T05:44:20;8.00;99.90
9768;DHT22;4923;52.520;13.494;2024-02-21T05:47:08;8.10;99.90
9768;DHT22;4923;52.520;13.494;2024-02-21T05:49:56;8.10;99.90
9768;DHT22;4923;52.520;13.494;2024-02-21T05:52:43;8.10;99.90
9768;DHT22;4923;52.520;13.494;2024-02-21T05:55:29;8.10;99.90
9768;DHT22;4923;52.520;13.494;2024-02-21T05:58:16;8.10;99.90
9768;DHT22;4923;52.520;13.494;2024-02-21T06:01:05;8.10;99.90
9768;DHT22;4923;52.520;13.494;2024-02-21T06:03:52;8.10;99.90
9768;DHT22;4923;52.520;13.494;2024-02-21T06:06:40;8.10;99.90
9768;DHT22;4923;52.520;13.494;2024-02-21T06:09:27;8.20;99.90
9768;DHT22;4923;52.520;13.494;2024-02-21T06:12:14;8.20;99.90
9768;DHT22;4923;52.520;13.494;2024-02-21T06:15:01;8.20;99.90
9768;DHT22;4923;52.520;13.494;2024-02-21T06:17:49;8.20;99.90
9768;DHT22;4923;52.520;13.494;2024-02-21T06:20:36;8.20;99.90
9768;DHT22;4923;52.520;13.494;2024-02-21T06:23:26;8.20;99.90
9768;DHT22;4923;52.520;13.494;2024-02-21T06:26:12;8.20;99.90
9768;DHT22;4923;52.520;13.494;2024-02-21T06:28:59;8.10;99.90
9768;DHT22;4923;52.520;13.494;2024-02-21T06:31:47;8.10;99.90
9768;DHT22;4923;52.520;13.494;2024-02-21T06:34:35;8.20;99.90
9768;DHT22;4923;52.520;13.494;2024-02-21T06:37:22;8.30;99.90
9768;DHT22;4923;52.520;13.494;2024-02-21T06:40:10;8.30;99.90
9768;DHT22;4923;52.520;13.494;2024-02-21T06:42:57;8.50;99.90
9768;DHT22;4923;52.520;13.494;2024-02-21T06:45:44;8.50;99.90
9768;DHT22;4923;52.520;13.494;2024-02-21T06:48:33;8.40;99.90
9768;DHT22;4923;52.520;13.494;2024-02-21T06:51:21;8.50;99.90
9768;DHT22;4923;52.520;13.494;2024-02-21T06:54:08;8.50;99.90
9768;DHT22;4923;52.520;13.494;2024-02-21T06:56:55;8.50;99.90
9768;DHT22;4923;52.520;13.494;2024-02-21T06:59:42;8.50;99.90
9768;DHT22;4923;52.520;13.494;2024-02-21T07:02:29;8.50;99.90
9768;DHT22;4923;52.520;13.494;2024-02-21T07:05:16;8.50;99.90
9768;DHT22;4923;52.520;13.494;2024-02-21T07:08:04;8.50;99.90
9768;DHT22;4923;52.520;13.494;2024-02-21T07:10:51;8.50;99.90
9768;DHT22;4923;52.520;13.494;2024-02-21T07:13:38;8.50;99.90
9768;DHT22;4923;52.520;13.494;2024-02-21T07:16:25;8.50;99.90
9768;DHT22;4923;52.520;13.494;2024-02-21T07:19:14;8.50;99.90
9768;DHT22;4923;52.520;13.494;2024-02-21T07:22:01;8.50;99.90
9768;DHT22;4923;52.520;13.494;2024-02-21T07:24:49;8.50;99.90
9768;DHT22;4923;52.520;13.494;2024-02-21T07:27:36;8.40;99.90
9768;DHT22;4923;52.520;13.494;2024-02-21T07:30:23;8.40;99.90
9768;DHT22;4923;52.520;13.494;2024-02-21T07:33:10;8.50;99.90
9768;DHT22;4923;52.520;13.494;2024-02-21T07:35:56;8.50;99.90
9768;DHT22;4923;52.520;13.494;2024-02-21T07:38:43;8.60;99.90
9768;DHT22;4923;52.520;13.494;2024-02-21T07:41:32;8.60;99.90
9768;DHT22;4923;52.520;13.494;2024-02-21T07:44:20;8.60;99.90
9768;DHT22;4923;52.520;13.494;2024-02-21T07:47:07;8.70;99.90
9768;DHT22;4923;52.520;13.494;2024-02-21T07:49:54;8.70;99.90
9768;DHT22;4923;52.520;13.494;2024-02-21T07:52:41;8.70;99.90
9768;DHT22;4923;52.520;13.494;2024-02-21T07:55:27;8.70;99.90
9768;DHT22;4923;52.520;13.494;2024-02-21T07:58:16;8.70;99.90
9768;DHT22;4923;52.520;13.494;2024-02-21T08:01:03;8.70;99.90
9768;DHT22;4923;52.520;13.494;2024-02-21T08:03:50;8.80;99.90
9768;DHT22;4923;52.520;13.494;2024-02-21T08:06:37;8.70;99.90
9768;DHT22;4923;52.520;13.494;2024-02-21T08:09:24;8.80;99.90
9768;DHT22;4923;52.520;13.494;2024-02-21T08:12:10;8.80;99.90
9768;DHT22;4923;52.520;13.494;2024-02-21T08:14:59;8.80;99.90
9768;DHT22;4923;52.520;13.494;2024-02-21T08:17:45;8.80;99.90
9768;DHT22;4923;52.520;13.494;2024-02-21T08:20:32;8.80;99.90
9768;DHT22;4923;52.520;13.494;2024-02-21T08:23:19;8.80;99.90
9768;DHT22;4923;52.520;13.494;2024-02-21T08:26:06;8.90;99.90
9768;DHT22;4923;52.520;13.494;2024-02-21T08:28:53;9.00;99.90
9768;DHT22;4923;52.520;13.494;2024-02-21T08:31:41;9.10;99.90
9768;DHT22;4923;52.520;13.494;2024-02-21T08:34:28;9.20;99.90
9768;DHT22;4923;52.520;13.494;2024-02-21T08:37:18;9.20;99.90
9768;DHT22;4923;52.520;13.494;2024-02-21T08:40:06;9.20;99.90
9768;DHT22;4923;52.520;13.494;2024-02-21T08:42:54;9.30;99.90
9768;DHT22;4923;52.520;13.494;2024-02-21T08:45:41;9.30;99.90
9768;DHT22;4923;52.520;13.494;2024-02-21T08:48:29;9.40;99.90
9768;DHT22;4923;52.520;13.494;2024-02-21T08:51:17;9.50;99.90
9768;DHT22;4923;52.520;13.494;2024-02-21T08:54:03;9.60;99.90
9768;DHT22;4923;52.520;13.494;2024-02-21T08:56:51;9.60;99.90
9768;DHT22;4923;52.520;13.494;2024-02-21T08:59:39;9.60;99.90
9768;DHT22;4923;52.520;13.494;2024-02-21T09:02:25;9.60;99.90
9768;DHT22;4923;52.520;13.494;2024-02-21T09:05:14;9.70;99.90
9768;DHT22;4923;52.520;13.494;2024-02-21T09:08:01;9.80;99.90
9768;DHT22;4923;52.520;13.494;2024-02-21T09:10:48;9.90;99.90
9768;DHT22;4923;52.520;13.494;2024-02-21T09:13:35;9.90;99.90
9768;DHT22;4923;52.520;13.494;2024-02-21T09:16:22;9.80;99.90
9768;DHT22;4923;52.520;13.494;2024-02-21T09:19:09;10.00;99.90
9768;DHT22;4923;52.520;13.494;2024-02-21T09:21:58;10.50;99.90
9768;DHT22;4923;52.520;13.494;2024-02-21T09:24:44;10.70;99.90
9768;DHT22;4923;52.520;13.494;2024-02-21T09:27:33;10.70;99.90
9768;DHT22;4923;52.520;13.494;2024-02-21T09:30:20;10.80;99.90
9768;DHT22;4923;52.520;13.494;2024-02-21T09:33:07;10.70;99.90
9768;DHT22;4923;52.520;13.494;2024-02-21T09:35:54;10.80;99.90
9768;DHT22;4923;52.520;13.494;2024-02-21T09:38:42;10.70;99.90
9768;DHT22;4923;52.520;13.494;2024-02-21T09:41:29;10.80;99.90
9768;DHT22;4923;52.520;13.494;2024-02-21T09:44:16;10.90;99.90
9768;DHT22;4923;52.520;13.494;2024-02-21T09:47:04;10.90;99.90
9768;DHT22;4923;52.520;13.494;2024-02-21T09:49:54;10.90;99.90
9768;DHT22;4923;52.520;13.494;2024-02-21T09:52:44;10.90;99.90
9768;DHT22;4923;52.520;13.494;2024-02-21T09:55:33;11.00;99.90
9768;DHT22;4923;52.520;13.494;2024-02-21T09:58:21;11.00;99.90
9768;DHT22;4923;52.520;13.494;2024-02-21T10:01:09;11.10;99.90
9768;DHT22;4923;52.520;13.494;2024-02-21T10:03:56;11.20;99.90
9768;DHT22;4923;52.520;13.494;2024-02-21T10:06:43;11.10;99.90
9768;DHT22;4923;52.520;13.494;2024-02-21T10:09:30;11.30;99.90
9768;DHT22;4923;52.520;13.494;2024-02-21T10:12:20;11.10;99.90
9768;DHT22;4923;52.520;13.494;2024-02-21T10:15:08;11.30;99.90
9768;DHT22;4923;52.520;13.494;2024-02-21T10:17:58;11.20;99.90
9768;DHT22;4923;52.520;13.494;2024-02-21T10:20:46;11.30;99.90
9768;DHT22;4923;52.520;13.494;2024-02-21T10:23:46;11.30;99.90
9768;DHT22;4923;52.520;13.494;2024-02-21T10:26:33;11.30;99.90
9768;DHT22;4923;52.520;13.494;2024-02-21T10:29:21;11.30;99.90
9768;DHT22;4923;52.520;13.494;2024-02-21T10:32:09;11.30;99.90
9768;DHT22;4923;52.520;13.494;2024-02-21T10:35:01;11.30;99.90
9768;DHT22;4923;52.520;13.494;2024-02-21T10:37:50;11.40;99.90
9768;DHT22;4923;52.520;13.494;2024-02-21T10:40:41;11.30;99.90
9768;DHT22;4923;52.520;13.494;2024-02-21T10:43:29;11.10;99.90
9768;DHT22;4923;52.520;13.494;2024-02-21T10:46:20;11.10;99.90
9768;DHT22;4923;52.520;13.494;2024-02-21T10:49:10;11.40;99.90
9768;DHT22;4923;52.520;13.494;2024-02-21T10:52:06;11.40;99.90
9768;DHT22;4923;52.520;13.494;2024-02-21T10:54:59;11.60;99.90
9768;DHT22;4923;52.520;13.494;2024-02-21T10:57:50;11.60;99.90
9768;DHT22;4923;52.520;13.494;2024-02-21T11:00:37;11.50;99.90
9768;DHT22;4923;52.520;13.494;2024-02-21T11:03:25;11.30;99.90
9768;DHT22;4923;52.520;13.494;2024-02-21T11:06:13;11.10;99.90
9768;DHT22;4923;52.520;13.494;2024-02-21T11:09:02;11.10;99.90
9768;DHT22;4923;52.520;13.494;2024-02-21T11:11:49;11.00;99.90
9768;DHT22;4923;52.520;13.494;2024-02-21T11:14:38;11.10;99.90
9768;DHT22;4923;52.520;13.494;2024-02-21T11:17:27;11.10;99.90
9768;DHT22;4923;52.520;13.494;2024-02-21T11:20:16;11.20;99.90
9768;DHT22;4923;52.520;13.494;2024-02-21T11:23:03;11.30;99.90
9768;DHT22;4923;52.520;13.494;2024-02-21T11:25:50;11.50;99.90
9768;DHT22;4923;52.520;13.494;2024-02-21T11:28:37;11.60;99.90
9768;DHT22;4923;52.520;13.494;2024-02-21T11:31:25;11.80;99.90
9768;DHT22;4923;52.520;13.494;2024-02-21T11:34:13;12.20;99.90
9768;DHT22;4923;52.520;13.494;2024-02-21T11:37:02;12.40;99.90
9768;DHT22;4923;52.520;13.494;2024-02-21T11:40:00;12.40;99.90
9768;DHT22;4923;52.520;13.494;2024-02-21T11:42:48;12.50;99.90
9768;DHT22;4923;52.520;13.494;2024-02-21T11:45:35;12.60;99.90
9768;DHT22;4923;52.520;13.494;2024-02-21T11:48:24;12.60;99.90
9768;DHT22;4923;52.520;13.494;2024-02-21T11:51:11;12.60;99.90
9768;DHT22;4923;52.520;13.494;2024-02-21T11:54:08;12.70;99.90
9768;DHT22;4923;52.520;13.494;2024-02-21T11:56:59;12.30;99.90
9768;DHT22;4923;52.520;13.494;2024-02-21T11:59:46;12.30;99.90
9768;DHT22;4923;52.520;13.494;2024-02-21T12:02:35;12.60;99.90
9768;DHT22;4923;52.520;13.494;2024-02-21T12:05:21;12.70;99.90
9768;DHT22;4923;52.520;13.494;2024-02-21T12:08:08;12.70;99.90
9768;DHT22;4923;52.520;13.494;2024-02-21T12:10:57;12.50;99.90
9768;DHT22;4923;52.520;13.494;2024-02-21T12:13:43;12.80;99.90
9768;DHT22;4923;52.520;13.494;2024-02-21T12:16:32;12.50;99.90
9768;DHT22;4923;52.520;13.494;2024-02-21T12:19:20;12.40;99.90
9768;DHT22;4923;52.520;13.494;2024-02-21T12:22:07;12.60;99.90
9768;DHT22;4923;52.520;13.494;2024-02-21T12:24:54;12.70;99.90
9768;DHT22;4923;52.520;13.494;2024-02-21T12:27:42;12.90;99.90
9768;DHT22;4923;52.520;13.494;2024-02-21T12:30:29;13.20;99.90
9768;DHT22;4923;52.520;13.494;2024-02-21T12:33:19;13.40;99.90
9768;DHT22;4923;52.520;13.494;2024-02-21T12:36:06;13.40;99.90
9768;DHT22;4923;52.520;13.494;2024-02-21T12:38:54;13.20;99.90
9768;DHT22;4923;52.520;13.494;2024-02-21T12:41:42;13.20;99.90
9768;DHT22;4923;52.520;13.494;2024-02-21T12:44:31;13.30;99.90
9768;DHT22;4923;52.520;13.494;2024-02-21T12:47:18;13.40;99.90
9768;DHT22;4923;52.520;13.494;2024-02-21T12:50:09;13.50;99.90
9768;DHT22;4923;52.520;13.494;2024-02-21T12:52:56;13.50;99.90
9768;DHT22;4923;52.520;13.494;2024-02-21T12:55:43;13.50;99.90
9768;DHT22;4923;52.520;13.494;2024-02-21T12:58:30;13.50;99.90
9768;DHT22;4923;52.520;13.494;2024-02-21T13:01:19;13.20;99.90
9768;DHT22;4923;52.520;13.494;2024-02-21T13:04:06;13.00;99.90
9768;DHT22;4923;52.520;13.494;2024-02-21T13:06:53;13.20;99.90
9768;DHT22;4923;52.520;13.494;2024-02-21T13:09:41;13.30;99.90
9768;DHT22;4923;52.520;13.494;2024-02-21T13:12:27;13.20;99.90
9768;DHT22;4923;52.520;13.494;2024-02-21T13:15:15;13.10;99.90
9768;DHT22;4923;52.520;13.494;2024-02-21T13:18:05;12.90;99.90
9768;DHT22;4923;52.520;13.494;2024-02-21T13:20:51;13.00;99.90
9768;DHT22;4923;52.520;13.494;2024-02-21T13:23:40;13.00;99.90
9768;DHT22;4923;52.520;13.494;2024-02-21T13:26:27;13.00;99.90
9768;DHT22;4923;52.520;13.494;2024-02-21T13:29:14;13.20;99.90
9768;DHT22;4923;52.520;13.494;2024-02-21T13:32:00;13.20;99.90
9768;DHT22;4923;52.520;13.494;2024-02-21T13:34:49;13.30;99.90
9768;DHT22;4923;52.520;13.494;2024-02-21T13:37:38;13.20;99.90
9768;DHT22;4923;52.520;13.494;2024-02-21T13:40:25;13.10;99.90
9768;DHT22;4923;52.520;13.494;2024-02-21T13:43:12;12.90;99.90
9768;DHT22;4923;52.520;13.494;2024-02-21T13:46:00;13.00;99.90
9768;DHT22;4923;52.520;13.494;2024-02-21T13:48:48;12.80;99.90
9768;DHT22;4923;52.520;13.494;2024-02-21T13:51:37;12.70;99.90
9768;DHT22;4923;52.520;13.494;2024-02-21T13:54:24;12.70;99.90
9768;DHT22;4923;52.520;13.494;2024-02-21T13:57:11;12.50;99.90
9768;DHT22;4923;52.520;13.494;2024-02-21T13:59:57;12.40;99.90
9768;DHT22;4923;52.520;13.494;2024-02-21T14:02:45;12.40;99.90
9768;DHT22;4923;52.520;13.494;2024-02-21T14:05:32;12.30;99.90
9768;DHT22;4923;52.520;13.494;2024-02-21T14:08:20;12.30;99.90
9768;DHT22;4923;52.520;13.494;2024-02-21T14:11:09;12.40;99.90
9768;DHT22;4923;52.520;13.494;2024-02-21T14:13:56;12.40;99.90
9768;DHT22;4923;52.520;13.494;2024-02-21T14:16:43;12.40;99.90
9768;DHT22;4923;52.520;13.494;2024-02-21T14:19:30;12.40;99.90
9768;DHT22;4923;52.520;13.494;2024-02-21T14:22:17;12.50;99.90
9768;DHT22;4923;52.520;13.494;2024-02-21T14:25:06;12.60;99.90
9768;DHT22;4923;52.520;13.494;2024-02-21T14:27:53;12.50;99.90
9768;DHT22;4923;52.520;13.494;2024-02-21T14:30:40;12.60;99.90
9768;DHT22;4923;52.520;13.494;2024-02-21T14:33:26;12.50;99.90
9768;DHT22;4923;52.520;13.494;2024-02-21T14:36:13;12.50;99.90
9768;DHT22;4923;52.520;13.494;2024-02-21T14:39:01;12.50;99.90
9768;DHT22;4923;52.520;13.494;2024-02-21T14:41:50;12.60;99.90
9768;DHT22;4923;52.520;13.494;2024-02-21T14:44:36;12.40;99.90
9768;DHT22;4923;52.520;13.494;2024-02-21T14:47:23;12.40;99.90
9768;DHT22;4923;52.520;13.494;2024-02-21T14:50:10;12.40;99.90
9768;DHT22;4923;52.520;13.494;2024-02-21T14:52:57;12.40;99.90
9768;DHT22;4923;52.520;13.494;2024-02-21T14:55:44;12.40;99.90
9768;DHT22;4923;52.520;13.494;2024-02-21T14:58:33;12.40;99.90
9768;DHT22;4923;52.520;13.494;2024-02-21T15:01:19;12.30;99.90
9768;DHT22;4923;52.520;13.494;2024-02-21T15:04:06;12.30;99.90
9768;DHT22;4923;52.520;13.494;2024-02-21T15:06:53;12.30;99.90
9768;DHT22;4923;52.520;13.494;2024-02-21T15:09:40;12.30;99.90
9768;DHT22;4923;52.520;13.494;2024-02-21T15:12:27;12.20;99.90
9768;DHT22;4923;52.520;13.494;2024-02-21T15:15:16;12.10;99.90
9768;DHT22;4923;52.520;13.494;2024-02-21T15:18:03;12.20;99.90
9768;DHT22;4923;52.520;13.494;2024-02-21T15:20:50;12.10;99.90
9768;DHT22;4923;52.520;13.494;2024-02-21T15:23:37;12.00;99.90
9768;DHT22;4923;52.520;13.494;2024-02-21T15:26:24;11.90;99.90
9768;DHT22;4923;52.520;13.494;2024-02-21T15:29:11;11.90;99.90
9768;DHT22;4923;52.520;13.494;2024-02-21T15:31:59;11.90;99.90
9768;DHT22;4923;52.520;13.494;2024-02-21T15:34:46;11.90;99.90
9768;DHT22;4923;52.520;13.494;2024-02-21T15:37:33;11.80;99.90
9768;DHT22;4923;52.520;13.494;2024-02-21T15:40:20;11.80;99.90
9768;DHT22;4923;52.520;13.494;2024-02-21T15:43:07;11.70;99.90
9768;DHT22;4923;52.520;13.494;2024-02-21T15:45:54;11.50;99.90
9768;DHT22;4923;52.520;13.494;2024-02-21T15:48:42;11.20;99.90
9768;DHT22;4923;52.520;13.494;2024-02-21T15:51:30;11.10;99.90
9768;DHT22;4923;52.520;13.494;2024-02-21T15:54:17;11.00;99.90
9768;DHT22;4923;52.520;13.494;2024-02-21T15:57:04;10.90;99.90
9768;DHT22;4923;52.520;13.494;2024-02-21T15:59:53;10.80;99.90
9768;DHT22;4923;52.520;13.494;2024-02-21T16:02:40;10.60;99.90
9768;DHT22;4923;52.520;13.494;2024-02-21T16:05:28;10.50;99.90
9768;DHT22;4923;52.520;13.494;2024-02-21T16:08:15;10.40;99.90
9768;DHT22;4923;52.520;13.494;2024-02-21T16:11:04;10.20;99.90
9768;DHT22;4923;52.520;13.494;2024-02-21T16:13:51;10.20;99.90
9768;DHT22;4923;52.520;13.494;2024-02-21T16:16:38;10.00;99.90
9768;DHT22;4923;52.520;13.494;2024-02-21T16:19:28;9.90;99.90
9768;DHT22;4923;52.520;13.494;2024-02-21T16:22:17;9.90;99.90
9768;DHT22;4923;52.520;13.494;2024-02-21T16:25:04;9.80;99.90
9768;DHT22;4923;52.520;13.494;2024-02-21T16:27:51;9.60;99.90
9768;DHT22;4923;52.520;13.494;2024-02-21T16:30:38;9.50;99.90
9768;DHT22;4923;52.520;13.494;2024-02-21T16:33:25;9.50;99.90
9768;DHT22;4923;52.520;13.494;2024-02-21T16:36:20;9.30;99.90
9768;DHT22;4923;52.520;13.494;2024-02-21T16:39:09;9.20;99.90
9768;DHT22;4923;52.520;13.494;2024-02-21T16:41:57;9.10;99.90
9768;DHT22;4923;52.520;13.494;2024-02-21T16:44:48;9.00;99.90
9768;DHT22;4923;52.520;13.494;2024-02-21T16:47:36;9.00;99.90
9768;DHT22;4923;52.520;13.494;2024-02-21T16:50:23;8.90;99.90
9768;DHT22;4923;52.520;13.494;2024-02-21T16:53:10;8.80;99.90
9768;DHT22;4923;52.520;13.494;2024-02-21T16:55:58;8.70;99.90
9768;DHT22;4923;52.520;13.494;2024-02-21T16:58:45;8.80;99.90
9768;DHT22;4923;52.520;13.494;2024-02-21T17:01:34;8.80;99.90
9768;DHT22;4923;52.520;13.494;2024-02-21T17:04:24;9.00;99.90
9768;DHT22;4923;52.520;13.494;2024-02-21T17:07:11;9.00;99.90
9768;DHT22;4923;52.520;13.494;2024-02-21T17:09:58;9.00;99.90
9768;DHT22;4923;52.520;13.494;2024-02-21T17:12:48;9.00;99.90
9768;DHT22;4923;52.520;13.494;2024-02-21T17:15:35;8.90;99.90
9768;DHT22;4923;52.520;13.494;2024-02-21T17:18:21;8.90;99.90
9768;DHT22;4923;52.520;13.494;2024-02-21T17:21:09;8.80;99.90
9768;DHT22;4923;52.520;13.494;2024-02-21T17:23:56;8.80;99.90
9768;DHT22;4923;52.520;13.494;2024-02-21T17:26:43;8.70;99.90
9768;DHT22;4923;52.520;13.494;2024-02-21T17:29:31;8.70;99.90
9768;DHT22;4923;52.520;13.494;2024-02-21T17:32:18;8.60;99.90
9768;DHT22;4923;52.520;13.494;2024-02-21T17:35:05;8.50;99.90
9768;DHT22;4923;52.520;13.494;2024-02-21T17:37:52;8.40;99.90
9768;DHT22;4923;52.520;13.494;2024-02-21T17:40:39;8.40;99.90
9768;DHT22;4923;52.520;13.494;2024-02-21T17:43:26;8.30;99.90
9768;DHT22;4923;52.520;13.494;2024-02-21T17:46:16;8.30;99.90
9768;DHT22;4923;52.520;13.494;2024-02-21T17:49:03;8.20;99.90
9768;DHT22;4923;52.520;13.494;2024-02-21T17:51:50;8.10;99.90
9768;DHT22;4923;52.520;13.494;2024-02-21T17:54:37;8.00;99.90
9768;DHT22;4923;52.520;13.494;2024-02-21T17:57:25;8.00;99.90
9768;DHT22;4923;52.520;13.494;2024-02-21T18:00:13;8.00;99.90
9768;DHT22;4923;52.520;13.494;2024-02-21T18:03:02;8.10;99.90
9768;DHT22;4923;52.520;13.494;2024-02-21T18:05:49;8.00;99.90